Time;durP1;ratioP1;P1;durP2;ratioP2;P2;SDS_P1;SDS_P2;PMS_P1;PMS_P2;Temp;Humidity;BMP_temperature;BMP_pressure;BME280_temperature;BME280_humidity;BME280_pressure;Samples;Min_cycle;Max_cycle;Signal;HPM_P1;HPM_P2
2021/11/20 00:00:55;;;;;;;25.70;19.80;;;;;;;-143.35;99.51;78322.75;5062156;28;20526;-81
2021/11/20 00:03:45;;;;;;;27.40;20.10;;;;;;;-143.35;99.68;78318.78;5082414;28;20852;-81
2021/11/20 00:06:36;;;;;;;27.33;20.60;;;;;;;-143.35;99.76;78314.81;5076076;28;20530;-82
2021/11/20 00:09:26;;;;;;;26.03;19.57;;;;;;;-143.35;99.76;78312.84;5077801;28;20451;-82
2021/11/20 00:12:17;;;;;;;29.53;19.83;;;;;;;-143.35;99.76;78302.94;5075367;28;20475;-81
2021/11/20 00:15:07;;;;;;;28.10;19.70;;;;;;;-143.35;99.46;78298.97;5077295;28;20467;-82
2021/11/20 00:17:55;;;;;;;28.47;19.60;;;;;;;-143.35;99.08;78300.97;5076619;28;20938;-82
2021/11/20 00:20:52;;;;;;;26.00;20.30;;;;;;;-143.35;98.84;78293.03;5075811;28;20443;-81
2021/11/20 00:23:42;;;;;;;26.93;19.67;;;;;;;-143.35;98.54;78297.00;5076808;28;20871;-81
2021/11/20 00:26:34;;;;;;;26.10;19.33;;;;;;;-143.35;98.40;78295.03;5075532;28;20443;-82
2021/11/20 00:29:27;;;;;;;28.97;20.80;;;;;;;-143.35;98.20;78297.00;5076748;28;20486;-83
2021/11/20 00:32:17;;;;;;;26.40;19.97;;;;;;;-143.35;98.22;78291.06;5041289;28;20445;-81
2021/11/20 00:35:09;;;;;;;27.00;20.00;;;;;;;-143.35;98.09;78287.09;5041578;28;20464;-81
2021/11/20 00:38:01;;;;;;;29.30;19.90;;;;;;;-143.35;97.98;78291.06;5056645;28;20523;-81
2021/11/20 00:40:52;;;;;;;27.57;21.47;;;;;;;-143.35;97.78;78289.09;5055768;28;20549;-82
2021/11/20 00:43:41;;;;;;;29.30;19.70;;;;;;;-143.35;97.52;78289.09;5056253;28;20450;-82
2021/11/20 00:46:31;;;;;;;29.77;20.40;;;;;;;-143.35;97.39;78293.03;5055023;28;20444;-82
2021/11/20 00:49:20;;;;;;;27.90;19.87;;;;;;;-143.35;97.53;78295.03;5056215;28;20531;-82
2021/11/20 00:52:08;;;;;;;26.53;20.10;;;;;;;-143.35;97.57;78297.00;5056269;28;20452;-81
2021/11/20 00:54:57;;;;;;;31.23;22.67;;;;;;;-143.35;97.68;78281.16;5055455;28;20475;-81
2021/11/20 00:57:45;;;;;;;30.60;21.33;;;;;;;-143.35;96.90;78275.22;5043776;28;20468;-82
2021/11/20 01:00:36;;;;;;;27.57;20.70;;;;;;;-143.35;96.53;78273.25;5050380;28;21231;-82
2021/11/20 01:03:25;;;;;;;28.50;21.80;;;;;;;-143.35;96.37;78271.28;5075057;28;20542;-81
2021/11/20 01:06:15;;;;;;;23.73;18.43;;;;;;;-143.35;96.24;78281.16;5055610;28;20824;-82
2021/11/20 01:09:04;;;;;;;26.27;19.80;;;;;;;-143.35;96.54;78281.16;5061140;28;20475;-81
2021/11/20 01:11:56;;;;;;;24.17;18.53;;;;;;;-143.35;96.78;78285.13;5060404;28;20978;-82
2021/11/20 01:14:46;;;;;;;29.60;21.03;;;;;;;-143.35;97.10;78285.13;5075212;28;20860;-81
2021/11/20 01:17:35;;;;;;;30.40;21.83;;;;;;;-143.35;97.23;78287.09;5041582;28;20469;-82
2021/11/20 01:20:24;;;;;;;31.70;21.97;;;;;;;-143.35;97.36;78289.09;5045245;28;20444;-81
2021/11/20 01:23:19;;;;;;;23.77;18.13;;;;;;;-143.35;97.55;78287.09;5064176;28;20801;-82
2021/11/20 01:26:13;;;;;;;28.77;20.70;;;;;;;-143.35;97.84;78283.16;5083079;28;20447;-80
2021/11/20 01:29:14;;;;;;;29.87;22.30;;;;;;;-143.35;98.05;78287.09;5072655;28;20470;-80
2021/11/20 01:32:07;;;;;;;32.00;23.17;;;;;;;-143.35;97.95;78281.16;5059972;28;21002;-81
2021/11/20 01:34:55;;;;;;;35.50;24.00;;;;;;;-143.35;98.16;78281.16;5075275;28;20443;-82
2021/11/20 01:37:43;;;;;;;29.97;22.10;;;;;;;-143.35;98.15;78279.19;5053705;28;20475;-82
2021/11/20 01:40:34;;;;;;;29.00;22.00;;;;;;;-143.35;98.14;78283.16;5060446;28;20542;-82
2021/11/20 01:43:23;;;;;;;31.80;23.40;;;;;;;-143.35;98.46;78279.19;5060171;28;21030;-82
2021/11/20 01:46:18;;;;;;;34.37;24.13;;;;;;;-143.35;98.25;78277.22;5075867;28;20988;-82
2021/11/20 01:49:14;;;;;;;34.60;23.80;;;;;;;-143.35;98.31;78275.22;5060623;28;20529;-82
2021/11/20 01:52:09;;;;;;;33.87;24.63;;;;;;;-143.35;98.41;78263.34;5074190;28;20439;-82
2021/11/20 01:55:09;;;;;;;35.70;23.57;;;;;;;-143.35;98.34;78267.31;5066031;28;20530;-81
2021/11/20 01:58:13;;;;;;;34.87;24.03;;;;;;;-143.35;98.46;78271.28;5075692;28;20466;-82
2021/11/20 02:01:09;;;;;;;30.53;21.53;;;;;;;-143.35;98.54;78267.31;5060600;28;20439;-83
2021/11/20 02:04:05;;;;;;;33.23;22.00;;;;;;;-143.35;98.49;78267.31;5058831;28;20449;-81
2021/11/20 02:07:14;;;;;;;39.10;23.60;;;;;;;-143.35;98.96;78265.34;5052227;28;20459;-82
2021/11/20 02:10:11;;;;;;;35.90;25.00;;;;;;;-143.35;99.03;78261.38;5060325;28;20811;-82
2021/11/20 02:13:08;;;;;;;33.50;23.23;;;;;;;-143.35;98.96;78265.34;5060947;28;20447;-82
2021/11/20 02:16:01;;;;;;;35.20;24.87;;;;;;;-143.35;99.01;78267.31;5086905;28;20471;-82
2021/11/20 02:18:56;;;;;;;35.33;25.10;;;;;;;-143.35;99.10;78259.41;5064760;28;20840;-82
2021/11/20 02:21:52;;;;;;;38.40;26.87;;;;;;;-143.35;99.20;78259.41;5063882;28;20450;-81
2021/11/20 02:24:39;;;;;;;38.93;25.10;;;;;;;-143.35;98.95;78251.47;5057878;28;20455;-82
2021/11/20 02:28:01;;;;;;;40.13;27.07;;;;;;;-143.35;98.99;78247.53;5057772;28;20464;-82
2021/11/20 02:30:51;;;;;;;39.63;25.43;;;;;;;-143.35;98.77;78247.53;5044963;28;20444;-82
2021/11/20 02:33:41;;;;;;;38.30;25.20;;;;;;;-143.35;98.78;78241.59;5056042;28;20478;-82
2021/11/20 02:36:29;;;;;;;39.97;26.47;;;;;;;-143.35;98.73;78243.56;5078477;28;20474;-81
2021/11/20 02:39:19;;;;;;;37.30;25.53;;;;;;;-143.35;98.95;78247.53;5078427;28;20990;-81
2021/11/20 02:42:09;;;;;;;38.77;28.20;;;;;;;-143.35;98.94;78247.53;5077432;28;20442;-82
2021/11/20 02:44:58;;;;;;;40.80;27.50;;;;;;;-143.35;98.80;78237.63;5062930;28;20432;-82
2021/11/20 02:47:49;;;;;;;43.17;28.47;;;;;;;-143.35;98.54;78235.66;5048562;28;20550;-82
2021/11/20 02:50:41;;;;;;;37.83;26.87;;;;;;;-143.35;98.11;78241.59;5063496;28;20440;-82
2021/11/20 02:53:32;;;;;;;37.93;26.30;;;;;;;-143.35;98.09;78231.69;5043320;28;20452;-82
2021/11/20 02:56:23;;;;;;;41.90;27.00;;;;;;;-143.35;97.96;78235.66;5042265;28;20818;-82
2021/11/20 02:59:12;;;;;;;36.70;26.33;;;;;;;-143.35;97.64;78227.72;5044119;28;20451;-82
2021/11/20 03:02:06;;;;;;;39.17;27.47;;;;;;;-143.35;97.25;78219.81;5046862;28;20537;-83
2021/11/20 03:04:56;;;;;;;39.47;26.67;;;;;;;-143.35;96.51;78215.84;5063000;28;20557;-83
2021/11/20 03:07:45;;;;;;;37.33;26.07;;;;;;;-143.35;96.59;78227.72;5063113;28;20467;-82
2021/11/20 03:10:34;;;;;;;43.70;26.67;;;;;;;-143.35;96.24;78213.88;5077785;28;20438;-81
2021/11/20 03:13:22;;;;;;;42.73;29.33;;;;;;;-143.35;96.61;78215.84;5077848;28;20542;-81
2021/11/20 03:16:19;;;;;;;38.40;26.87;;;;;;;-143.35;96.60;78219.81;5063003;28;20455;-82
2021/11/20 03:19:09;;;;;;;41.73;27.10;;;;;;;-143.35;96.63;78211.91;5076976;28;20483;-81
2021/11/20 03:22:01;;;;;;;42.63;27.40;;;;;;;-143.35;96.63;78213.88;5063265;28;20944;-82
2021/11/20 03:24:50;;;;;;;39.30;26.90;;;;;;;-143.35;96.87;78209.91;5061974;28;20443;-82
2021/11/20 03:27:39;;;;;;;41.83;27.80;;;;;;;-143.35;96.91;78205.97;5061831;28;20557;-82
2021/11/20 03:30:28;;;;;;;40.30;26.30;;;;;;;-143.35;96.91;78213.88;5063513;28;20454;-83
2021/11/20 03:33:17;;;;;;;40.70;27.43;;;;;;;-143.35;96.60;78207.94;5081481;28;20438;-82
2021/11/20 03:36:06;;;;;;;40.90;28.20;;;;;;;-143.35;96.69;78209.91;5075789;28;20478;-83
2021/11/20 03:38:57;;;;;;;41.90;27.20;;;;;;;-143.35;96.38;78209.91;5061025;28;20490;-81
2021/11/20 03:41:46;;;;;;;44.67;27.97;;;;;;;-143.35;96.52;78203.97;5061479;28;20436;-82
2021/11/20 03:44:34;;;;;;;37.27;26.60;;;;;;;-143.35;96.59;78200.03;5065251;28;20451;-82
2021/11/20 03:47:25;;;;;;;43.03;26.80;;;;;;;-143.35;96.42;78196.06;5082546;28;20462;-81
2021/11/20 03:50:17;;;;;;;43.93;25.97;;;;;;;-143.35;96.25;78200.03;5082336;28;20438;-81
2021/11/20 03:53:05;;;;;;;38.40;26.00;;;;;;;-143.35;96.25;78202.00;5065471;28;20503;-81
2021/11/20 03:55:57;;;;;;;41.80;27.03;;;;;;;-143.35;96.07;78192.09;5040251;28;20563;-82
2021/11/20 03:58:45;;;;;;;38.80;26.50;;;;;;;-143.35;96.06;78188.16;5042271;28;20453;-81
2021/11/20 04:01:34;;;;;;;39.50;26.70;;;;;;;-143.35;95.83;78190.13;5043951;28;20740;-82
2021/11/20 04:04:24;;;;;;;43.03;27.10;;;;;;;-143.35;95.77;78184.19;5062393;28;20451;-82
2021/11/20 04:07:12;;;;;;;39.97;27.23;;;;;;;-143.35;95.72;78184.19;5062213;28;20456;-81
2021/11/20 04:10:17;;;;;;;40.37;25.37;;;;;;;-143.35;95.69;78192.09;5067640;28;20455;-81
2021/11/20 04:13:07;;;;;;;45.73;26.50;;;;;;;-143.35;95.63;78192.09;5064515;28;20451;-82
2021/11/20 04:15:55;;;;;;;44.73;26.97;;;;;;;-143.35;95.52;78196.06;5063039;28;20964;-80
2021/11/20 04:18:45;;;;;;;38.23;26.20;;;;;;;-143.35;95.61;78194.09;5060887;28;20482;-81
2021/11/20 04:21:36;;;;;;;42.33;26.43;;;;;;;-143.35;95.64;78192.09;5059710;28;20447;-82
2021/11/20 04:24:25;;;;;;;38.57;25.97;;;;;;;-143.35;95.24;78186.16;5061595;28;20444;-81
2021/11/20 04:27:25;;;;;;;39.60;25.80;;;;;;;-143.35;94.80;78182.22;5075955;28;20476;-81
2021/11/20 04:31:01;;;;;;;39.10;25.23;;;;;;;-143.35;94.93;78196.06;5066308;28;20440;-80
2021/11/20 04:33:53;;;;;;;40.47;26.30;;;;;;;-143.35;95.30;78196.06;5041333;28;20440;-81
2021/11/20 04:36:42;;;;;;;39.23;24.77;;;;;;;-143.35;95.48;78192.09;5060408;28;20551;-81
2021/11/20 04:39:32;;;;;;;39.23;26.23;;;;;;;-143.35;95.50;78188.16;5061036;28;20447;-80
2021/11/20 04:42:19;;;;;;;45.70;27.13;;;;;;;-143.35;95.70;78194.09;5059887;28;20467;-80
2021/11/20 04:45:11;;;;;;;41.50;25.23;;;;;;;-143.35;95.71;78190.13;5060965;28;20439;-80
2021/11/20 04:48:03;;;;;;;39.87;26.70;;;;;;;-143.35;95.86;78188.16;5060300;28;20462;-81
2021/11/20 04:51:05;;;;;;;44.87;25.73;;;;;;;-143.35;96.04;78180.22;5060755;28;20450;-80
2021/11/20 04:53:56;;;;;;;40.27;25.60;;;;;;;-143.35;95.82;78186.16;5040885;28;20456;-81
2021/11/20 04:56:44;;;;;;;48.50;28.30;;;;;;;-143.35;95.51;78188.16;5041671;28;20476;-82
2021/11/20 04:59:34;;;;;;;44.90;26.37;;;;;;;-143.35;95.66;78184.19;5041026;28;20609;-80
2021/11/20 05:02:24;;;;;;;39.70;26.07;;;;;;;-143.35;95.60;78182.22;5048919;28;20447;-81
2021/11/20 05:05:16;;;;;;;41.83;25.60;;;;;;;-143.35;95.83;78180.22;5060633;28;20444;-82
2021/11/20 05:08:05;;;;;;;43.60;26.70;;;;;;;-143.35;95.69;78184.19;5075145;28;20996;-80
2021/11/20 05:10:56;;;;;;;43.93;26.30;;;;;;;-143.35;95.63;78182.22;5057992;28;20540;-80
2021/11/20 05:13:45;;;;;;;38.97;25.03;;;;;;;-143.35;95.30;78174.28;5061141;28;20444;-81
2021/11/20 05:16:38;;;;;;;35.60;23.63;;;;;;;-143.35;95.01;78172.31;5074832;28;20470;-81
2021/11/20 05:19:27;;;;;;;35.57;22.70;;;;;;;-143.35;94.91;78170.34;5060410;28;20439;-81
2021/11/20 05:22:16;;;;;;;36.93;23.83;;;;;;;-143.35;94.68;78170.34;5075922;28;20528;-82
2021/11/20 05:25:07;;;;;;;33.83;23.10;;;;;;;-143.35;94.46;78174.28;5079642;28;20423;-81
2021/11/20 05:27:56;;;;;;;39.20;24.37;;;;;;;-143.35;94.23;78168.34;5082360;28;20808;-81
2021/11/20 05:30:48;;;;;;;34.83;22.80;;;;;;;-143.35;94.41;78180.22;5085253;28;20539;-82
2021/11/20 05:33:41;;;;;;;34.20;23.40;;;;;;;-143.35;94.59;78172.31;5067212;28;20446;-80
2021/11/20 05:36:35;;;;;;;39.67;25.00;;;;;;;-143.35;94.47;78174.28;5060309;28;20459;-81
2021/11/20 05:39:28;;;;;;;34.07;22.70;;;;;;;-143.35;94.18;78168.34;5078147;28;20471;-80
2021/11/20 05:42:16;;;;;;;33.27;21.77;;;;;;;-143.35;93.53;78158.47;5082950;28;20434;-77
2021/11/20 05:45:07;;;;;;;33.50;21.63;;;;;;;-143.35;93.24;78164.41;5072803;28;20444;-81
2021/11/20 05:47:55;;;;;;;35.17;22.27;;;;;;;-143.35;93.69;78168.34;5069664;28;20483;-80
2021/11/20 05:50:43;;;;;;;31.57;21.50;;;;;;;-143.35;93.66;78170.34;5058033;28;20455;-81
2021/11/20 05:53:31;;;;;;;34.00;20.90;;;;;;;-143.35;93.57;78170.34;5058921;28;20505;-81
2021/11/20 05:56:21;;;;;;;33.87;22.20;;;;;;;-143.35;93.60;78168.34;5060171;28;20463;-81
2021/11/20 05:59:10;;;;;;;34.90;22.80;;;;;;;-143.35;93.56;78166.38;5060087;28;20452;-80
2021/11/20 06:02:00;;;;;;;35.43;21.80;;;;;;;-143.35;93.44;78160.44;5073763;28;20435;-81
2021/11/20 06:04:51;;;;;;;36.20;20.77;;;;;;;-143.35;93.05;78162.41;5050068;28;20820;-81
2021/11/20 06:07:40;;;;;;;30.23;21.40;;;;;;;-143.35;92.94;78162.41;5093110;23;20480;31
2021/11/20 06:10:28;;;;;;;33.63;20.83;;;;;;;-143.35;93.25;78166.38;4989571;28;20474;-78
2021/11/20 06:13:18;;;;;;;34.03;21.63;;;;;;;-143.35;93.30;78158.47;4969733;28;20442;-78
2021/11/20 06:16:30;;;;;;;31.53;19.97;;;;;;;-143.35;93.32;78164.41;4984041;28;20458;-78
2021/11/20 06:19:17;;;;;;;32.67;20.67;;;;;;;-143.35;93.64;78164.41;4992092;28;20463;-77
2021/11/20 06:22:06;;;;;;;34.53;22.33;;;;;;;-143.35;93.68;78156.47;4985484;28;20439;-78
2021/11/20 06:24:57;;;;;;;35.10;21.10;;;;;;;-143.35;93.67;78152.53;4977383;28;20435;-78
2021/11/20 06:27:45;;;;;;;34.97;22.10;;;;;;;-143.35;93.69;78148.56;4977217;28;20602;-77
2021/11/20 06:30:36;;;;;;;32.50;21.13;;;;;;;-143.35;93.79;78146.59;4990876;28;20502;-78
2021/11/20 06:33:23;;;;;;;30.53;20.07;;;;;;;-143.35;93.76;78148.56;4977011;28;20948;-78
2021/11/20 06:36:22;;;;;;;32.60;20.40;;;;;;;-143.35;94.06;78152.53;4991172;28;20459;-77
2021/11/20 06:39:17;;;;;;;29.83;20.60;;;;;;;-143.35;94.09;78160.44;4973006;28;20471;-78
2021/11/20 06:42:07;;;;;;;31.17;21.03;;;;;;;-143.35;93.87;78158.47;4990586;28;21025;-78
2021/11/20 06:44:55;;;;;;;30.93;20.60;;;;;;;-143.35;93.63;78160.44;4991233;28;20463;-77
2021/11/20 06:47:44;;;;;;;32.00;20.97;;;;;;;-143.35;93.19;78164.41;4978438;28;20497;-77
2021/11/20 06:50:34;;;;;;;36.13;20.03;;;;;;;-143.35;93.50;78166.38;4994657;28;20501;-77
2021/11/20 06:53:41;;;;;;;29.60;19.20;;;;;;;-143.35;93.85;78168.34;4993776;28;20451;-77
2021/11/20 06:56:47;;;;;;;30.83;19.10;;;;;;;-143.35;94.02;78176.28;4992166;28;20467;-78
2021/11/20 07:03:24;;;;;;;30.83;18.83;;;;;;;-143.35;94.21;78170.34;4995132;28;20447;-77
2021/11/20 07:06:27;;;;;;;34.27;18.13;;;;;;;-143.35;94.47;78176.28;5006751;28;20474;-77
2021/11/20 07:09:17;;;;;;;31.30;18.90;;;;;;;-143.35;94.64;78168.34;4982059;28;20515;-77
2021/11/20 07:12:06;;;;;;;34.00;20.13;;;;;;;-143.35;94.55;78168.34;4961585;28;20448;-78
2021/11/20 07:14:54;;;;;;;30.80;19.57;;;;;;;-143.35;94.56;78168.34;4985018;28;20463;-77
2021/11/20 07:17:42;;;;;;;31.10;19.30;;;;;;;-143.35;94.62;78164.41;4964361;28;20468;-77
2021/11/20 07:20:55;;;;;;;26.80;17.87;;;;;;;-143.35;94.68;78168.34;4984119;28;20450;-77
2021/11/20 07:23:43;;;;;;;28.70;20.17;;;;;;;-143.35;94.73;78168.34;4987457;28;20500;-78
2021/11/20 07:26:31;;;;;;;27.23;18.33;;;;;;;-143.35;94.87;78168.34;4983680;28;20452;-77
2021/11/20 07:29:19;;;;;;;26.60;17.90;;;;;;;-143.35;94.79;78170.34;4974624;28;20475;-77
2021/11/20 07:32:27;;;;;;;28.93;18.97;;;;;;;-143.35;95.00;78166.38;4990646;28;20803;-77
2021/11/20 07:35:25;;;;;;;26.60;19.07;;;;;;;-143.35;94.56;78162.41;4994109;28;20502;-77
2021/11/20 07:38:16;;;;;;;31.73;20.03;;;;;;;-143.35;94.45;78158.47;4993430;28;20510;-77
2021/11/20 07:41:08;;;;;;;30.33;18.63;;;;;;;-143.35;94.29;78148.56;4980919;28;20458;-78
2021/11/20 07:43:58;;;;;;;30.30;20.07;;;;;;;-143.35;94.19;78148.56;4993662;28;20455;-77
2021/11/20 07:46:48;;;;;;;33.30;20.80;;;;;;;-143.35;94.24;78144.59;4993440;28;20454;-76
2021/11/20 07:49:39;;;;;;;31.00;19.20;;;;;;;-143.35;93.76;78136.69;4994260;28;20486;-77
2021/11/20 07:52:27;;;;;;;36.73;19.27;;;;;;;-143.35;91.68;78120.84;4993907;28;20454;-77
2021/11/20 07:55:17;;;;;;;27.03;16.90;;;;;;;-143.35;90.72;78126.78;4980444;28;20813;-76
2021/11/20 07:58:23;;;;;;;27.63;19.30;;;;;;;-143.35;89.99;78107.00;4992895;28;20479;-76
2021/11/20 08:01:12;;;;;;;26.87;19.17;;;;;;;-143.35;87.91;78105.03;4984810;28;20586;-77
2021/11/20 08:04:04;;;;;;;28.63;18.60;;;;;;;-143.35;86.38;78107.00;4954590;29;20449;-76
2021/11/20 08:07:18;;;;;;;28.00;19.10;;;;;;;-143.35;86.05;78101.06;4960952;28;20450;-76
2021/11/20 08:10:38;;;;;;;29.50;20.83;;;;;;;-143.35;86.08;78099.09;4993340;28;20459;-76
2021/11/20 08:13:27;;;;;;;32.23;18.70;;;;;;;-143.35;85.82;78103.03;4993231;28;20458;-76
2021/11/20 08:16:17;;;;;;;30.90;19.43;;;;;;;-143.35;85.43;78101.06;5006707;28;20439;-76
2021/11/20 08:19:18;;;;;;;30.10;18.83;;;;;;;-143.35;85.55;78095.13;4987328;28;20467;-77
2021/11/20 08:22:15;;;;;;;27.53;18.00;;;;;;;-143.35;84.78;78083.25;4979663;28;20462;-76
2021/11/20 08:25:04;;;;;;;29.60;19.20;;;;;;;-143.35;84.77;78083.25;4993274;28;20462;-77
2021/11/20 08:27:53;;;;;;;27.53;19.90;;;;;;;-143.35;85.23;78075.34;4978346;28;20467;-77
2021/11/20 08:30:48;;;;;;;30.50;20.93;;;;;;;-143.35;85.20;78069.41;4993541;28;20439;-76
2021/11/20 08:33:36;;;;;;;26.80;18.57;;;;;;;-143.35;85.45;78071.38;4993220;28;20944;-76
2021/11/20 08:36:24;;;;;;;31.80;20.00;;;;;;;-143.35;85.77;78069.41;4993415;28;20446;-76
2021/11/20 08:39:27;;;;;;;27.67;18.57;;;;;;;-143.35;85.62;78057.53;4994281;28;20970;-76
2021/11/20 08:42:16;;;;;;;32.73;20.60;;;;;;;-143.35;85.02;78057.53;4977523;28;20451;-77
2021/11/20 08:45:07;;;;;;;27.30;18.57;;;;;;;-143.35;84.16;78055.53;4978259;28;20986;-76
2021/11/20 08:48:04;;;;;;;30.70;18.37;;;;;;;-143.35;83.87;78051.59;4975524;28;20582;-77
2021/11/20 08:50:57;;;;;;;29.27;21.07;;;;;;;-143.35;83.70;78047.63;4992507;28;20497;-76
2021/11/20 08:53:45;;;;;;;30.60;20.87;;;;;;;-143.35;83.95;78047.63;4987284;28;20458;-76
2021/11/20 08:56:36;;;;;;;26.07;18.00;;;;;;;-143.35;83.91;78045.66;4999722;28;20573;-76
2021/11/20 08:59:29;;;;;;;27.60;19.13;;;;;;;-143.35;84.37;78041.69;4984961;28;20863;-76
2021/11/20 09:02:53;;;;;;;25.80;18.07;;;;;;;-143.35;82.63;78023.88;4990524;28;20440;-76
2021/11/20 09:05:47;;;;;;;24.30;18.17;;;;;;;-143.35;82.21;78019.91;4992346;28;20816;-76
2021/11/20 09:08:40;;;;;;;26.40;18.20;;;;;;;-143.35;82.57;78023.88;4984997;28;20480;-76
2021/11/20 09:11:30;;;;;;;28.40;18.83;;;;;;;-143.35;81.95;78021.91;4961405;28;20440;-76
2021/11/20 09:14:21;;;;;;;26.20;18.73;;;;;;;-143.35;81.59;78023.88;4965014;28;20448;-76
2021/11/20 09:17:23;;;;;;;29.43;18.17;;;;;;;-143.35;81.95;78019.91;4971710;28;20470;-76
2021/11/20 09:20:12;;;;;;;27.70;19.63;;;;;;;-143.35;81.71;78013.97;4972965;28;20557;-76
2021/11/20 09:23:00;;;;;;;27.37;19.07;;;;;;;-143.35;81.12;78013.97;4973432;28;20456;-77
2021/11/20 09:26:12;;;;;;;27.90;16.97;;;;;;;-143.35;80.80;78006.06;4973671;28;20476;-77
2021/11/20 09:29:01;;;;;;;26.63;18.73;;;;;;;-143.35;80.13;78004.09;4960159;28;20452;-76
2021/11/20 09:31:52;;;;;;;26.10;18.40;;;;;;;-143.35;80.00;77998.16;4978961;28;20474;-76
2021/11/20 09:34:40;;;;;;;24.03;17.47;;;;;;;-143.35;79.64;77986.28;4971855;28;20456;-76
2021/11/20 09:37:32;;;;;;;25.17;17.07;;;;;;;-143.35;79.82;77982.31;4972666;28;20504;-76
2021/11/20 09:40:32;;;;;;;25.90;17.57;;;;;;;-143.35;80.02;77990.22;4971390;28;20570;-77
2021/11/20 09:43:26;;;;;;;25.33;17.47;;;;;;;-143.35;80.03;77982.31;4973475;28;20458;-76
2021/11/20 09:46:18;;;;;;;27.33;16.70;;;;;;;-143.35;79.85;77972.41;4972906;28;20526;-76
2021/11/20 09:49:15;;;;;;;24.77;17.07;;;;;;;-143.35;79.32;77974.41;4971556;28;20467;-76
2021/11/20 09:52:06;;;;;;;25.10;17.13;;;;;;;-143.35;79.91;77980.34;4960163;28;20452;-76
2021/11/20 09:54:55;;;;;;;21.23;15.60;;;;;;;-143.35;80.06;77972.41;4973285;28;20452;-76
2021/11/20 09:57:47;;;;;;;22.53;15.87;;;;;;;-143.35;79.61;77972.41;4973914;28;20464;-76
2021/11/20 10:00:51;;;;;;;22.47;15.60;;;;;;;-143.35;79.16;77972.41;4974427;28;20454;-76
2021/11/20 10:03:44;;;;;;;19.80;14.20;;;;;;;-143.35;78.48;77976.38;4973566;28;20596;-76
2021/11/20 10:06:38;;;;;;;20.57;14.70;;;;;;;-143.35;77.84;77972.41;4973303;28;20436;-76
2021/11/20 10:09:30;;;;;;;25.73;15.67;;;;;;;-143.35;78.70;77974.41;4987923;28;20614;-76
2021/11/20 10:12:25;;;;;;;23.80;16.10;;;;;;;-143.35;78.62;77960.53;4978154;28;20440;-76
2021/11/20 10:15:16;;;;;;;20.20;14.80;;;;;;;-143.35;77.99;77942.72;4993420;28;20454;-76
2021/11/20 10:18:16;;;;;;;21.03;15.10;;;;;;;-143.35;76.69;77946.69;4992528;28;20477;-76
2021/11/20 10:21:17;;;;;;;21.57;15.33;;;;;;;-143.35;77.14;77942.72;4978652;28;20435;-76
2021/11/20 10:24:16;;;;;;;17.00;13.90;;;;;;;-143.35;77.31;77936.78;4991686;28;20515;-76
2021/11/20 10:27:19;;;;;;;18.87;14.17;;;;;;;-143.35;75.20;77922.94;4991267;28;20483;-76
2021/11/20 10:30:26;;;;;;;17.73;12.10;;;;;;;-143.35;75.46;77924.91;4992327;28;20446;-76
2021/11/20 10:33:24;;;;;;;15.97;12.90;;;;;;;-143.35;75.36;77926.91;4991953;28;20479;-76
2021/11/20 10:36:22;;;;;;;17.67;12.50;;;;;;;-143.35;75.71;77913.03;4992081;28;21187;-76
2021/11/20 10:39:13;;;;;;;16.70;13.10;;;;;;;-143.35;75.30;77920.97;4995494;28;20467;-77
2021/11/20 10:42:05;;;;;;;18.20;13.00;;;;;;;-143.35;75.02;77909.09;4995797;28;20443;-77
2021/11/20 10:44:56;;;;;;;18.47;13.43;;;;;;;-143.35;74.79;77901.16;4980594;28;20443;-77
2021/11/20 10:47:59;;;;;;;18.90;13.07;;;;;;;-143.35;73.63;77899.19;4995200;28;20443;-78
2021/11/20 10:50:49;;;;;;;15.93;12.63;;;;;;;-143.35;74.56;77899.19;4984723;28;20487;-77
2021/11/20 10:54:06;;;;;;;17.17;12.50;;;;;;;-143.35;73.81;77887.31;4993591;28;20450;-77
2021/11/20 10:56:59;;;;;;;16.33;11.33;;;;;;;-143.35;74.32;77893.25;4984075;28;20453;-77
2021/11/20 11:00:12;;;;;;;17.30;13.87;;;;;;;-143.35;73.91;77893.25;4994855;28;20482;-76
2021/11/20 11:03:27;;;;;;;17.20;12.60;;;;;;;-143.35;74.92;77887.31;4982464;28;20443;-77
2021/11/20 11:06:45;;;;;;;15.43;12.07;;;;;;;-143.35;74.16;77867.53;4979083;28;20447;-77
2021/11/20 11:09:46;;;;;;;15.67;12.73;;;;;;;-143.35;74.17;77859.59;4979268;28;20491;-77
2021/11/20 11:12:41;;;;;;;14.83;12.77;;;;;;;-143.35;74.12;77863.56;4961320;28;20448;-77
2021/11/20 11:15:36;;;;;;;14.63;12.93;;;;;;;-143.35;74.13;77855.66;4965245;28;20957;-77
2021/11/20 11:18:37;;;;;;;16.43;14.33;;;;;;;-143.35;74.66;77851.69;4972319;28;20471;-77
2021/11/20 11:21:43;;;;;;;18.93;14.37;;;;;;;-143.35;74.14;77847.72;4955978;28;20456;-77
2021/11/20 11:24:47;;;;;;;15.80;14.00;;;;;;;-143.35;73.74;77843.78;4971802;28;20456;-77
2021/11/20 11:27:48;;;;;;;15.87;12.90;;;;;;;-143.35;74.19;77847.72;4973909;28;20470;-77
2021/11/20 11:30:44;;;;;;;20.63;15.03;;;;;;;-143.35;73.62;77849.72;4956240;28;20448;-76
2021/11/20 11:33:42;;;;;;;17.07;13.57;;;;;;;-143.35;72.03;77855.66;4963823;28;20452;-77
2021/11/20 11:36:38;;;;;;;15.90;13.27;;;;;;;-143.35;72.81;77851.69;4964794;28;20500;-77
2021/11/20 11:39:41;;;;;;;17.80;13.90;;;;;;;-143.35;73.68;77845.75;4964486;28;20473;-76
2021/11/20 11:42:45;;;;;;;18.60;13.50;;;;;;;-143.35;73.87;77843.78;4953813;29;20851;-77
2021/11/20 11:46:02;;;;;;;17.70;14.53;;;;;;;-143.35;73.71;77845.75;4953380;29;20463;-77
2021/11/20 11:49:06;;;;;;;16.00;13.77;;;;;;;-143.35;74.00;77835.88;4939850;29;20472;-77
2021/11/20 11:52:01;;;;;;;21.50;15.63;;;;;;;-143.35;73.67;77831.91;4955127;28;20476;-77
2021/11/20 11:55:05;;;;;;;18.67;14.30;;;;;;;-143.35;73.15;77827.94;4955399;29;20445;-76
2021/11/20 11:58:15;;;;;;;21.87;15.63;;;;;;;-143.35;73.32;77820.03;4954518;29;20468;-78
2021/11/20 12:01:07;;;;;;;18.33;14.27;;;;;;;-143.35;73.48;77816.06;4951802;29;20551;-77
2021/11/20 12:04:07;;;;;;;19.93;15.30;;;;;;;-143.35;72.68;77816.06;4952597;29;20605;-77
2021/11/20 12:07:35;;;;;;;18.90;14.77;;;;;;;-143.35;72.35;77818.06;4951786;29;20456;-77
2021/11/20 12:57:11;;;;;;;;;;;;;;;;;;;;;
2021/11/20 13:03:52;;;;;;;21.97;16.27;;;;;;;-143.35;72.77;77750.75;3160848;26;20821;-81
2021/11/20 13:06:46;;;;;;;21.60;14.40;;;;;;;-143.35;71.75;77740.88;5070794;28;20443;-81
2021/11/20 13:09:38;;;;;;;21.17;15.40;;;;;;;-143.35;71.84;77752.75;5073179;28;20463;-81
2021/11/20 13:12:32;;;;;;;20.50;14.20;;;;;;;-143.35;72.34;77740.88;5071935;28;20492;-81
2021/11/20 13:15:32;;;;;;;20.60;15.83;;;;;;;-143.35;72.78;77740.88;5070754;28;20834;-81
2021/11/20 13:18:24;;;;;;;21.40;15.57;;;;;;;-143.35;71.99;77742.84;5058898;28;20605;-81
2021/11/20 13:21:20;;;;;;;18.37;13.30;;;;;;;-143.35;71.54;77746.81;5073149;28;20455;-81
2021/11/20 13:24:10;;;;;;;19.17;13.90;;;;;;;-143.35;72.08;77754.72;5072612;28;20497;-80
2021/11/20 13:26:57;;;;;;;19.37;14.73;;;;;;;-143.35;72.40;77750.75;5072604;28;20602;-81
2021/11/20 13:29:49;;;;;;;20.23;14.93;;;;;;;-143.35;71.33;77734.94;5071193;28;20468;-80
2021/11/20 13:32:41;;;;;;;19.97;14.40;;;;;;;-143.35;71.78;77742.84;5071846;28;20483;-81
2021/11/20 13:35:31;;;;;;;19.20;14.50;;;;;;;-143.35;72.04;77727.00;5071751;28;20808;-80
2021/11/20 13:38:20;;;;;;;19.97;15.43;;;;;;;-143.35;72.66;77730.97;5069977;28;20845;-81
2021/11/20 13:41:08;;;;;;;18.87;15.17;;;;;;;-143.35;73.88;77730.97;5072581;28;20440;-80
2021/11/20 13:43:56;;;;;;;19.77;15.03;;;;;;;-143.35;73.20;77725.03;5074277;28;20432;-80
2021/11/20 13:46:48;;;;;;;20.57;15.00;;;;;;;-143.35;72.81;77725.03;5057049;28;20447;-80
2021/11/20 13:49:36;;;;;;;23.93;17.23;;;;;;;-143.35;73.41;77736.91;5074505;28;20491;-80
2021/11/20 13:52:24;;;;;;;20.60;15.70;;;;;;;-143.35;72.80;77738.88;5075988;28;20472;-80
2021/11/20 13:55:15;;;;;;;22.83;16.53;;;;;;;-143.35;72.59;77736.91;5074524;28;20444;-82